Time;durP1;ratioP1;P1;durP2;ratioP2;P2;SDS_P1;SDS_P2;PMS_P1;PMS_P2;Temp;Humidity;BMP_temperature;BMP_pressure;BME280_temperature;BME280_humidity;BME280_pressure;Samples;Min_cycle;Max_cycle;Signal;HPM_P1;HPM_P2
2023/06/13 00:01:08;;;;;;;14.10;4.90;;;;;;;;;;106829;1260;22480;-82
2023/06/13 00:03:41;;;;;;;31.80;5.20;;;;;;;;;;110558;1277;22359;-77
2023/06/13 00:06:09;;;;;;;23.20;5.50;;;;;;;;;;110454;1276;22881;-77
2023/06/13 00:08:35;;;;;;;29.60;4.80;;;;;;;;;;110454;1277;22295;-77
2023/06/13 00:11:02;;;;;;;23.40;5.00;;;;;;;;;;110462;1259;22103;-77
2023/06/13 00:13:29;;;;;;;21.80;5.10;;;;;;;;;;110360;1275;22120;-77
2023/06/13 00:15:58;;;;;;;27.50;4.90;;;;;;;;;;110342;1277;22128;-77
2023/06/13 00:18:25;;;;;;;20.50;5.10;;;;;;;;;;110273;1277;22421;-77
2023/06/13 00:20:59;;;;;;;15.70;5.00;;;;;;;;;;110499;1258;23066;-77
2023/06/13 00:23:26;;;;;;;15.30;5.80;;;;;;;;;;110346;1277;22113;-77
2023/06/13 00:25:53;;;;;;;11.80;4.70;;;;;;;;;;110357;1278;22131;-77
2023/06/13 00:28:20;;;;;;;13.10;4.80;;;;;;;;;;110454;1277;22079;-77
2023/06/13 00:30:51;;;;;;;16.20;6.50;;;;;;;;;;110547;1267;22079;-78
2023/06/13 00:33:18;;;;;;;18.70;5.40;;;;;;;;;;110364;1278;22153;-77
2023/06/13 00:35:46;;;;;;;14.20;5.40;;;;;;;;;;110350;1278;22348;-77
2023/06/13 00:38:21;;;;;;;11.70;5.60;;;;;;;;;;110291;1277;22341;-77
2023/06/13 00:40:48;;;;;;;13.70;4.80;;;;;;;;;;110435;1266;22397;-78
2023/06/13 00:43:14;;;;;;;14.40;5.20;;;;;;;;;;110299;1278;22097;-78
2023/06/13 00:45:41;;;;;;;13.30;5.30;;;;;;;;;;110435;1278;22119;-77
2023/06/13 00:48:28;;;;;;;15.50;5.20;;;;;;;;;;110432;1278;22856;-77
2023/06/13 00:51:03;;;;;;;16.30;5.40;;;;;;;;;;110312;1263;22153;-77
2023/06/13 00:53:31;;;;;;;10.20;4.80;;;;;;;;;;110425;1278;22108;-77
2023/06/13 00:55:59;;;;;;;12.10;4.40;;;;;;;;;;110438;1278;22103;-77
2023/06/13 00:58:27;;;;;;;9.40;4.20;;;;;;;;;;110431;1278;22187;-77
2023/06/13 01:01:03;;;;;;;9.80;4.00;;;;;;;;;;110405;1269;22160;-77
2023/06/13 01:03:33;;;;;;;12.10;4.60;;;;;;;;;;110462;1276;23185;-77
2023/06/13 01:06:00;;;;;;;12.00;4.00;;;;;;;;;;110309;1276;21986;-77
2023/06/13 01:08:27;;;;;;;10.10;4.20;;;;;;;;;;110616;1276;22043;-77
2023/06/13 01:11:12;;;;;;;8.80;4.30;;;;;;;;;;110435;1270;22212;-77
2023/06/13 01:13:47;;;;;;;10.80;4.50;;;;;;;;;;110448;1276;22865;-77
2023/06/13 01:16:16;;;;;;;9.00;4.30;;;;;;;;;;110619;1276;22077;-77
2023/06/13 01:18:44;;;;;;;9.90;4.20;;;;;;;;;;110592;1276;22135;-78
2023/06/13 01:21:11;;;;;;;9.30;4.20;;;;;;;;;;110361;1270;22112;-77
2023/06/13 01:23:39;;;;;;;12.00;4.00;;;;;;;;;;110595;1276;23066;-77
2023/06/13 01:26:13;;;;;;;11.30;4.30;;;;;;;;;;110323;1276;22116;-77
2023/06/13 01:28:44;;;;;;;9.80;4.30;;;;;;;;;;110297;1276;22243;-77
2023/06/13 01:31:42;;;;;;;11.80;5.00;;;;;;;;;;110555;1270;22158;-77
2023/06/13 01:34:18;;;;;;;11.90;4.80;;;;;;;;;;110568;1276;22094;-77
2023/06/13 01:36:45;;;;;;;13.60;5.20;;;;;;;;;;110452;1276;22135;-77
2023/06/13 01:39:12;;;;;;;13.70;4.80;;;;;;;;;;110589;1276;22417;-77
2023/06/13 01:41:41;;;;;;;10.90;4.80;;;;;;;;;;110472;1254;22835;-77
2023/06/13 01:44:11;;;;;;;10.80;4.30;;;;;;;;;;110421;1278;22752;-78
2023/06/13 01:46:51;;;;;;;10.00;4.30;;;;;;;;;;110427;1277;22285;-78
2023/06/13 01:49:50;;;;;;;10.70;4.30;;;;;;;;;;110407;1278;22096;-77
2023/06/13 01:52:30;;;;;;;10.80;4.00;;;;;;;;;;110526;1255;22213;-78
2023/06/13 01:55:09;;;;;;;11.70;4.10;;;;;;;;;;110411;1277;22181;-77
2023/06/13 01:57:38;;;;;;;9.80;4.00;;;;;;;;;;110302;1278;22642;-77
2023/06/13 02:00:06;;;;;;;11.70;3.70;;;;;;;;;;110404;1278;22119;-77
2023/06/13 02:02:42;;;;;;;10.10;3.90;;;;;;;;;;110563;1260;22101;-77
2023/06/13 02:05:08;;;;;;;10.20;4.00;;;;;;;;;;110410;1277;22925;-77
2023/06/13 02:07:38;;;;;;;11.60;4.20;;;;;;;;;;110472;1277;22211;-77
2023/06/13 02:10:05;;;;;;;10.80;4.10;;;;;;;;;;110432;1278;22245;-77
2023/06/13 02:12:41;;;;;;;11.10;4.30;;;;;;;;;;110432;1260;22148;-77
2023/06/13 02:15:08;;;;;;;13.90;4.50;;;;;;;;;;110389;1278;22783;-77
2023/06/13 02:17:35;;;;;;;12.30;4.70;;;;;;;;;;110323;1278;23070;-77
2023/06/13 02:20:06;;;;;;;13.50;4.80;;;;;;;;;;110294;1278;22110;-77
2023/06/13 02:22:33;;;;;;;13.50;4.60;;;;;;;;;;110513;1254;22188;-77
2023/06/13 02:25:00;;;;;;;11.10;4.40;;;;;;;;;;110454;1277;22171;-78
2023/06/13 02:27:27;;;;;;;10.10;4.20;;;;;;;;;;110212;1277;22109;-78
2023/06/13 02:29:54;;;;;;;9.40;4.20;;;;;;;;;;110440;1277;22001;-78
2023/06/13 02:32:22;;;;;;;11.80;3.90;;;;;;;;;;110447;1254;22792;-77
2023/06/13 02:34:52;;;;;;;8.50;3.50;;;;;;;;;;110299;1278;22160;-77
2023/06/13 02:37:20;;;;;;;9.70;4.00;;;;;;;;;;110295;1278;22714;-77
2023/06/13 02:44:21;;;;;;;8.90;3.30;;;;;;;;;;110110;1274;22119;-77
2023/06/13 02:46:57;;;;;;;;;;;;;;;;;;;;;
2023/06/13 02:49:25;;;;;;;11.90;3.80;;;;;;;;;;110145;1279;22104;-77
2023/06/13 02:51:52;;;;;;;9.00;3.80;;;;;;;;;;110081;1278;22004;-77
2023/06/13 02:54:21;;;;;;;10.00;3.80;;;;;;;;;;110339;1259;22131;-77
2023/06/13 02:56:48;;;;;;;7.90;3.40;;;;;;;;;;110149;1278;22948;-78
2023/06/13 02:59:20;;;;;;;7.40;3.40;;;;;;;;;;110299;1279;22100;-77
2023/06/13 03:02:07;;;;;;;10.40;3.50;;;;;;;;;;110167;1279;22327;-77
2023/06/13 03:04:45;;;;;;;;;;;;;;;;;;;;;
2023/06/13 03:07:16;;;;;;;7.80;3.20;;;;;;;;;;110146;1278;22206;-78
2023/06/13 03:09:43;;;;;;;8.30;3.70;;;;;;;;;;110143;1278;22075;-77
2023/06/13 03:12:13;;;;;;;11.10;3.60;;;;;;;;;;110112;1279;22109;-78
2023/06/13 03:14:43;;;;;;;12.00;4.70;;;;;;;;;;110415;1263;22756;-77
2023/06/13 03:17:10;;;;;;;10.10;4.40;;;;;;;;;;110158;1279;22146;-78
2023/06/13 03:19:50;;;;;;;10.20;4.40;;;;;;;;;;110105;1279;22116;-78
2023/06/13 03:22:19;;;;;;;13.00;5.30;;;;;;;;;;110171;1278;22117;-78
2023/06/13 03:24:48;;;;;;;13.10;4.80;;;;;;;;;;110364;1261;22198;-83
2023/06/13 03:27:15;;;;;;;12.50;4.70;;;;;;;;;;110133;1279;22603;-78
2023/06/13 03:29:43;;;;;;;19.00;5.90;;;;;;;;;;110141;1279;22182;-78
2023/06/13 03:32:12;;;;;;;14.20;5.40;;;;;;;;;;110153;1279;23114;-78
2023/06/13 03:34:40;;;;;;;12.70;5.30;;;;;;;;;;110347;1260;22819;-78
2023/06/13 03:37:08;;;;;;;12.70;5.20;;;;;;;;;;110155;1279;22099;-78
2023/06/13 03:39:44;;;;;;;22.40;5.90;;;;;;;;;;110082;1280;22137;-78
2023/06/13 03:42:12;;;;;;;15.50;4.70;;;;;;;;;;110054;1280;22845;-78
2023/06/13 03:44:41;;;;;;;20.70;4.70;;;;;;;;;;110318;1262;22015;-78
2023/06/13 03:47:08;;;;;;;12.80;4.90;;;;;;;;;;110081;1281;22083;-78
2023/06/13 03:49:37;;;;;;;11.10;5.10;;;;;;;;;;110039;1280;22923;-78
2023/06/13 03:52:07;;;;;;;12.40;5.10;;;;;;;;;;110034;1281;22161;-78
2023/06/13 03:54:34;;;;;;;15.40;5.10;;;;;;;;;;110258;1257;22837;-78
2023/06/13 03:57:01;;;;;;;12.60;5.30;;;;;;;;;;110158;1280;22101;-78
2023/06/13 03:59:27;;;;;;;15.00;5.10;;;;;;;;;;110113;1280;22758;-78
2023/06/13 04:01:54;;;;;;;15.80;5.30;;;;;;;;;;110080;1280;22087;-78
2023/06/13 04:04:21;;;;;;;13.70;5.40;;;;;;;;;;110182;1257;22164;-78
2023/06/13 04:06:49;;;;;;;14.40;5.20;;;;;;;;;;110094;1281;22165;-78
2023/06/13 04:09:17;;;;;;;11.70;4.60;;;;;;;;;;110031;1281;22117;-78
2023/06/13 04:11:44;;;;;;;13.40;5.30;;;;;;;;;;110046;1281;22829;-78
2023/06/13 04:14:11;;;;;;;15.10;5.20;;;;;;;;;;110121;1281;22329;-79
2023/06/13 04:16:37;;;;;;;27.00;6.60;;;;;;;;;;110063;1261;22138;-78
2023/06/13 04:19:07;;;;;;;25.90;7.00;;;;;;;;;;110130;1280;22097;-78
2023/06/13 04:21:33;;;;;;;21.40;6.90;;;;;;;;;;110127;1280;22775;-78
2023/06/13 04:24:00;;;;;;;29.00;8.80;;;;;;;;;;110099;1280;22077;-78
2023/06/13 04:26:28;;;;;;;24.80;8.80;;;;;;;;;;110401;1260;22188;-78
2023/06/13 04:28:55;;;;;;;18.50;6.20;;;;;;;;;;110005;1281;22114;-78
2023/06/13 04:31:22;;;;;;;20.60;5.00;;;;;;;;;;110088;1277;22855;-78
2023/06/13 04:33:50;;;;;;;11.20;4.40;;;;;;;;;;110092;1281;22883;-78
2023/06/13 04:36:19;;;;;;;13.60;4.80;;;;;;;;;;110351;1261;22021;-78
2023/06/13 04:38:46;;;;;;;14.40;4.60;;;;;;;;;;110103;1280;22094;-78
2023/06/13 04:41:13;;;;;;;16.30;4.50;;;;;;;;;;110109;1281;22860;-78
2023/06/13 04:43:41;;;;;;;14.50;4.50;;;;;;;;;;110047;1267;22146;-78
2023/06/13 04:46:08;;;;;;;11.40;4.80;;;;;;;;;;110183;1263;22097;-78
2023/06/13 04:48:35;;;;;;;12.40;4.60;;;;;;;;;;110032;1281;22192;-78
2023/06/13 04:51:04;;;;;;;12.70;4.30;;;;;;;;;;110083;1281;22126;-78
2023/06/13 04:53:33;;;;;;;11.10;4.30;;;;;;;;;;110127;1281;22200;-77
2023/06/13 04:56:00;;;;;;;12.50;4.40;;;;;;;;;;110185;1259;22156;-78
2023/06/13 04:58:28;;;;;;;14.60;4.80;;;;;;;;;;110124;1281;22854;-78
2023/06/13 05:00:58;;;;;;;14.00;4.60;;;;;;;;;;110128;1281;22145;-78
2023/06/13 05:03:27;;;;;;;10.50;4.10;;;;;;;;;;110054;1281;22105;-78
2023/06/13 05:06:06;;;;;;;11.60;4.60;;;;;;;;;;110152;1257;22288;-78
2023/06/13 05:08:34;;;;;;;12.40;4.70;;;;;;;;;;110144;1281;22075;-78
2023/06/13 05:11:03;;;;;;;10.70;4.50;;;;;;;;;;110069;1281;22098;-78
2023/06/13 05:13:31;;;;;;;14.20;4.80;;;;;;;;;;110139;1281;22105;-78
2023/06/13 05:15:58;;;;;;;13.80;5.30;;;;;;;;;;110057;1260;22154;-78
2023/06/13 05:18:29;;;;;;;11.50;5.10;;;;;;;;;;110103;1281;22108;-78
2023/06/13 05:20:56;;;;;;;16.20;5.80;;;;;;;;;;110133;1281;22763;-78
2023/06/13 05:23:24;;;;;;;13.20;7.60;;;;;;;;;;110152;1281;22144;-78
2023/06/13 05:25:50;;;;;;;13.80;7.30;;;;;;;;;;110018;1263;22242;-78
2023/06/13 05:28:18;;;;;;;17.00;8.10;;;;;;;;;;110030;1281;21671;-77
2023/06/13 05:30:46;;;;;;;18.40;8.70;;;;;;;;;;110019;1281;22108;-77
2023/06/13 05:33:16;;;;;;;17.80;9.40;;;;;;;;;;110148;1280;22103;-78
2023/06/13 05:35:46;;;;;;;16.40;8.10;;;;;;;;;;110071;1280;22393;-78
2023/06/13 05:38:12;;;;;;;15.90;8.40;;;;;;;;;;110351;1260;22867;-77
2023/06/13 05:40:40;;;;;;;15.10;7.70;;;;;;;;;;110033;1281;22753;-78
2023/06/13 05:43:08;;;;;;;19.60;7.40;;;;;;;;;;110025;1281;22097;-78
2023/06/13 05:45:36;;;;;;;13.70;6.70;;;;;;;;;;109921;1281;22725;-78
2023/06/13 05:48:03;;;;;;;12.40;6.30;;;;;;;;;;110079;1263;23023;-78
2023/06/13 05:50:31;;;;;;;14.90;6.00;;;;;;;;;;110096;1281;22648;-78
2023/06/13 05:52:58;;;;;;;12.50;5.70;;;;;;;;;;109940;1281;22105;-78
2023/06/13 05:55:26;;;;;;;11.00;5.90;;;;;;;;;;109991;1281;22088;-78
2023/06/13 05:57:54;;;;;;;12.40;5.50;;;;;;;;;;110283;1260;22842;-78
2023/06/13 06:00:26;;;;;;;12.00;4.90;;;;;;;;;;110008;1281;22283;-78
2023/06/13 06:02:54;;;;;;;12.40;5.60;;;;;;;;;;110008;1281;22180;-78
2023/06/13 06:05:24;;;;;;;11.50;5.60;;;;;;;;;;110027;1281;22113;-78
2023/06/13 06:07:52;;;;;;;12.60;5.00;;;;;;;;;;110178;1260;22398;-78
2023/06/13 06:10:19;;;;;;;12.50;5.00;;;;;;;;;;110016;1281;22113;-79
2023/06/13 06:12:47;;;;;;;13.40;5.30;;;;;;;;;;110004;1281;22027;-79
2023/06/13 06:15:14;;;;;;;10.70;4.90;;;;;;;;;;109966;1281;22829;-78
2023/06/13 06:24:47;;;;;;;12.40;4.40;;;;;;;;;;109712;1288;22136;-78
2023/06/13 06:27:14;;;;;;;11.80;4.30;;;;;;;;;;109626;1265;22243;-78
2023/06/13 06:29:42;;;;;;;10.50;4.30;;;;;;;;;;109709;1288;22965;-78
2023/06/13 06:32:10;;;;;;;9.80;3.90;;;;;;;;;;109711;1288;22150;-78
2023/06/13 06:34:39;;;;;;;11.10;3.50;;;;;;;;;;109659;1288;22919;-78
2023/06/13 06:37:07;;;;;;;10.60;3.40;;;;;;;;;;109710;1265;22110;-78
2023/06/13 06:39:35;;;;;;;10.40;3.90;;;;;;;;;;109710;1288;22185;-78
2023/06/13 06:42:04;;;;;;;12.70;4.00;;;;;;;;;;109676;1289;22197;-78
2023/06/13 06:44:41;;;;;;;9.60;3.90;;;;;;;;;;109659;1289;22151;-78
2023/06/13 06:47:09;;;;;;;12.40;3.40;;;;;;;;;;109687;1288;22304;-79
2023/06/13 06:49:40;;;;;;;9.30;3.80;;;;;;;;;;109861;1267;22211;-77
2023/06/13 06:52:10;;;;;;;9.30;3.10;;;;;;;;;;109948;1282;22149;-78
2023/06/13 06:54:47;;;;;;;10.10;3.10;;;;;;;;;;109981;1282;22136;-78
2023/06/13 06:57:20;;;;;;;10.20;4.10;;;;;;;;;;110018;1282;22110;-78
2023/06/13 06:59:50;;;;;;;12.10;3.60;;;;;;;;;;110348;1264;22783;-78
2023/06/13 07:02:21;;;;;;;11.90;3.80;;;;;;;;;;110094;1282;22137;-78
2023/06/13 07:04:53;;;;;;;11.70;3.70;;;;;;;;;;110030;1282;22050;-78
2023/06/13 07:07:22;;;;;;;12.40;4.10;;;;;;;;;;110021;1282;22112;-78
2023/06/13 07:09:51;;;;;;;8.80;4.00;;;;;;;;;;110139;1266;22146;-78
2023/06/13 07:12:20;;;;;;;13.20;4.60;;;;;;;;;;110043;1282;22119;-78
2023/06/13 07:14:49;;;;;;;15.60;5.40;;;;;;;;;;110248;1279;22126;-78
2023/06/13 07:17:18;;;;;;;13.90;5.30;;;;;;;;;;110136;1279;22191;-78
2023/06/13 07:19:47;;;;;;;14.30;5.40;;;;;;;;;;110426;1259;22178;-78
2023/06/13 07:22:25;;;;;;;13.80;4.70;;;;;;;;;;110364;1278;22138;-78
2023/06/13 07:24:54;;;;;;;12.40;5.00;;;;;;;;;;110212;1279;22019;-78
2023/06/13 07:27:24;;;;;;;13.30;4.60;;;;;;;;;;110195;1278;22107;-80
2023/06/13 07:29:53;;;;;;;13.20;5.00;;;;;;;;;;110247;1258;22163;-78
2023/06/13 07:32:22;;;;;;;13.70;4.40;;;;;;;;;;110252;1278;22183;-78
2023/06/13 07:34:54;;;;;;;10.60;4.50;;;;;;;;;;110068;1279;22178;-78
2023/06/13 07:37:24;;;;;;;11.60;4.10;;;;;;;;;;110124;1279;22102;-78
2023/06/13 07:46:58;;;;;;;14.20;5.10;;;;;;;;;;104093;1301;545332;-81
2023/06/13 07:49:29;;;;;;;11.70;4.60;;;;;;;;;;106251;1286;22531;-81
2023/06/13 07:51:56;;;;;;;11.90;4.10;;;;;;;;;;106429;1286;25429;-84
2023/06/13 07:54:23;;;;;;;14.80;4.60;;;;;;;;;;106350;1286;25332;-80
2023/06/13 07:56:51;;;;;;;12.50;3.60;;;;;;;;;;106484;1279;23531;-78
2023/06/13 07:59:21;;;;;;;12.00;3.60;;;;;;;;;;106154;1287;22515;-84
2023/06/13 08:01:48;;;;;;;8.00;3.00;;;;;;;;;;104081;1285;3224876;-84
2023/06/13 08:04:15;;;;;;;11.20;3.90;;;;;;;;;;106342;1285;24067;-81
2023/06/13 08:06:42;;;;;;;13.20;4.30;;;;;;;;;;106497;1267;25353;-78
2023/06/13 08:09:11;;;;;;;13.40;4.90;;;;;;;;;;106474;1285;24105;-77
2023/06/13 08:11:38;;;;;;;12.70;4.90;;;;;;;;;;106530;1285;24042;-81
2023/06/13 08:14:07;;;;;;;16.20;5.20;;;;;;;;;;106429;1285;23270;-84
2023/06/13 08:16:36;;;;;;;15.30;4.20;;;;;;;;;;106515;1285;22552;-83
2023/06/13 08:19:04;;;;;;;11.60;4.10;;;;;;;;;;106521;1285;22536;-78
2023/06/13 08:21:31;;;;;;;14.80;4.60;;;;;;;;;;106208;1285;25327;-77
2023/06/13 08:23:59;;;;;;;12.10;4.10;;;;;;;;;;106559;1285;24723;-81
2023/06/13 08:26:27;;;;;;;10.50;4.20;;;;;;;;;;106358;1263;22611;-79
2023/06/13 08:28:53;;;;;;;12.70;4.30;;;;;;;;;;106431;1285;22653;-77
2023/06/13 08:31:23;;;;;;;13.00;4.70;;;;;;;;;;106200;1285;22530;-84
2023/06/13 08:33:55;;;;;;;11.30;3.80;;;;;;;;;;106158;1285;24206;-78
2023/06/13 08:36:22;;;;;;;13.70;3.50;;;;;;;;;;106393;1285;25408;-78
2023/06/13 08:38:49;;;;;;;8.60;3.20;;;;;;;;;;106395;1267;22540;-78
2023/06/13 08:41:18;;;;;;;9.40;3.30;;;;;;;;;;106640;1280;25271;-81
2023/06/13 08:43:45;;;;;;;8.00;3.20;;;;;;;;;;106865;1280;22533;-78
2023/06/13 08:46:14;;;;;;;9.90;3.40;;;;;;;;;;106824;1280;25337;-78
2023/06/13 08:48:42;;;;;;;9.20;3.50;;;;;;;;;;106877;1260;22489;-79
2023/06/13 08:51:16;;;;;;;9.50;3.40;;;;;;;;;;106895;1280;22525;-84
2023/06/13 08:53:53;;;;;;;9.70;3.90;;;;;;;;;;106633;1280;23908;-79
2023/06/13 08:56:22;;;;;;;8.90;3.70;;;;;;;;;;106840;1280;22539;-84
2023/06/13 08:58:56;;;;;;;10.00;3.50;;;;;;;;;;106516;1265;22520;-77
2023/06/13 09:01:27;;;;;;;8.80;3.50;;;;;;;;;;106463;1281;24238;-82
2023/06/13 09:03:55;;;;;;;12.90;4.20;;;;;;;;;;106881;1281;22641;-79
2023/06/13 09:06:23;;;;;;;17.30;4.20;;;;;;;;;;106642;1267;22644;-84
2023/06/13 09:08:58;;;;;;;13.70;4.70;;;;;;;;;;106792;1281;22767;-78
2023/06/13 09:11:26;;;;;;;11.70;4.70;;;;;;;;;;106735;1281;22538;-82
2023/06/13 09:13:58;;;;;;;18.90;4.50;;;;;;;;;;106639;1281;25290;-79
2023/06/13 09:16:26;;;;;;;14.50;4.50;;;;;;;;;;106540;1281;24326;-84
2023/06/13 09:18:53;;;;;;;18.80;4.30;;;;;;;;;;106655;1262;23582;-77
2023/06/13 09:21:20;;;;;;;17.40;4.30;;;;;;;;;;106837;1257;22553;-84
2023/06/13 09:23:47;;;;;;;15.00;4.80;;;;;;;;;;106660;1281;22530;-82
2023/06/13 09:26:18;;;;;;;16.00;5.10;;;;;;;;;;106711;1280;24348;-78
2023/06/13 09:28:47;;;;;;;13.60;4.40;;;;;;;;;;107135;1254;22601;-82
2023/06/13 09:31:20;;;;;;;18.50;4.90;;;;;;;;;;107228;1274;24497;-81
2023/06/13 09:33:47;;;;;;;16.70;4.60;;;;;;;;;;107161;1260;22520;-82
2023/06/13 09:36:14;;;;;;;18.40;4.60;;;;;;;;;;107072;1274;22524;-81
2023/06/13 09:38:41;;;;;;;18.30;4.90;;;;;;;;;;107102;1257;24219;-77
2023/06/13 09:41:10;;;;;;;19.60;4.90;;;;;;;;;;107288;1271;24203;-84
2023/06/13 09:43:37;;;;;;;16.80;5.20;;;;;;;;;;107195;1273;24313;-81
2023/06/13 09:46:04;;;;;;;14.70;4.40;;;;;;;;;;107256;1273;24338;-81
2023/06/13 09:48:31;;;;;;;17.40;4.50;;;;;;;;;;107191;1266;25346;-77
2023/06/13 09:50:58;;;;;;;19.40;4.40;;;;;;;;;;107363;1275;24346;-77
2023/06/13 09:53:34;;;;;;;15.40;4.80;;;;;;;;;;107107;1274;22766;-82
2023/06/13 09:56:01;;;;;;;20.50;4.70;;;;;;;;;;107225;1274;22580;-77
2023/06/13 09:58:28;;;;;;;23.70;5.00;;;;;;;;;;106984;1250;24381;-84
2023/06/13 10:00:58;;;;;;;12.60;4.30;;;;;;;;;;107279;1273;24331;-81
2023/06/13 10:03:29;;;;;;;14.40;4.80;;;;;;;;;;107204;1273;22493;-82
2023/06/13 10:05:57;;;;;;;14.80;3.80;;;;;;;;;;107185;1273;25421;-80
2023/06/13 10:08:24;;;;;;;14.60;4.30;;;;;;;;;;107197;1273;22710;-76
2023/06/13 10:10:51;;;;;;;17.00;3.90;;;;;;;;;;107001;1263;24313;-76
2023/06/13 10:13:20;;;;;;;16.10;4.10;;;;;;;;;;107046;1274;24218;-83
2023/06/13 10:15:58;;;;;;;16.60;4.40;;;;;;;;;;107055;1274;25357;-81
2023/06/13 10:18:30;;;;;;;11.40;3.90;;;;;;;;;;107048;1274;22533;-81
2023/06/13 10:20:58;;;;;;;10.80;4.10;;;;;;;;;;107377;1257;22597;-81
2023/06/13 10:23:28;;;;;;;13.90;4.50;;;;;;;;;;107018;1273;22530;-79
2023/06/13 10:26:15;;;;;;;14.50;4.50;;;;;;;;;;107187;1251;24196;-82
2023/06/13 10:29:12;;;;;;;11.80;4.30;;;;;;;;;;107231;1251;24193;-76
2023/06/13 10:31:41;;;;;;;16.60;4.30;;;;;;;;;;107166;1257;22527;-83
2023/06/13 10:34:17;;;;;;;20.40;4.80;;;;;;;;;;107158;1274;25306;-82
2023/06/13 10:37:10;;;;;;;15.40;4.50;;;;;;;;;;107303;1274;22533;-80
2023/06/13 10:39:49;;;;;;;17.30;4.20;;;;;;;;;;106963;1273;25282;-78
2023/06/13 10:42:22;;;;;;;12.20;4.20;;;;;;;;;;107197;1251;23859;-79
2023/06/13 10:45:00;;;;;;;17.40;4.20;;;;;;;;;;107254;1273;22534;-77
2023/06/13 10:47:31;;;;;;;11.70;3.90;;;;;;;;;;107320;1261;22527;-77
2023/06/13 10:49:58;;;;;;;14.90;4.20;;;;;;;;;;106967;1273;22618;-76
2023/06/13 10:52:25;;;;;;;17.60;8.30;;;;;;;;;;107072;1257;25553;-81
2023/06/13 10:54:53;;;;;;;16.50;5.50;;;;;;;;;;107174;1274;23596;-77
2023/06/13 10:57:20;;;;;;;19.00;4.80;;;;;;;;;;107300;1274;22527;-84
2023/06/13 10:59:49;;;;;;;18.70;4.70;;;;;;;;;;107073;1274;22640;-82
2023/06/13 11:02:17;;;;;;;13.00;4.10;;;;;;;;;;107168;1273;22523;-81
2023/06/13 11:04:51;;;;;;;12.00;4.30;;;;;;;;;;107197;1273;25396;-77
2023/06/13 11:07:28;;;;;;;14.50;4.60;;;;;;;;;;107291;1273;22667;-83
2023/06/13 11:10:10;;;;;;;11.80;4.70;;;;;;;;;;107149;1251;22523;-81
2023/06/13 11:12:37;;;;;;;12.00;3.90;;;;;;;;;;107225;1264;22520;-82
2023/06/13 11:15:04;;;;;;;13.40;4.90;;;;;;;;;;107179;1274;22563;-79
2023/06/13 11:17:40;;;;;;;13.30;5.00;;;;;;;;;;107069;1274;22580;-83
2023/06/13 11:20:17;;;;;;;15.20;4.30;;;;;;;;;;107237;1274;22479;-79
2023/06/13 11:22:54;;;;;;;;;;;;;;;;;;;;;
2023/06/13 11:25:21;;;;;;;12.40;4.40;;;;;;;;;;107097;1274;24230;-82
2023/06/13 11:28:02;;;;;;;13.60;5.30;;;;;;;;;;107090;1257;22529;-81
2023/06/13 11:30:31;;;;;;;11.40;4.90;;;;;;;;;;107173;1250;22523;-82
2023/06/13 11:33:09;;;;;;;11.90;4.40;;;;;;;;;;107405;1257;22584;-81
2023/06/13 11:35:40;;;;;;;11.20;5.00;;;;;;;;;;107200;1274;22532;-80
2023/06/13 11:38:15;;;;;;;14.50;4.90;;;;;;;;;;107020;1274;23134;-81
2023/06/13 11:40:43;;;;;;;16.80;4.60;;;;;;;;;;107199;1274;25281;-82
2023/06/13 11:43:10;;;;;;;13.20;5.20;;;;;;;;;;106977;1257;24205;-81
2023/06/13 11:45:46;;;;;;;15.50;4.90;;;;;;;;;;107080;1273;22495;-81
2023/06/13 11:48:22;;;;;;;15.60;4.90;;;;;;;;;;107161;1253;22672;-77
2023/06/13 11:50:49;;;;;;;13.40;4.60;;;;;;;;;;107096;1273;22527;-76
2023/06/13 11:53:17;;;;;;;13.60;5.00;;;;;;;;;;107217;1274;22533;-79
2023/06/13 11:55:44;;;;;;;16.70;5.20;;;;;;;;;;110672;1261;22146;-76
2023/06/13 11:58:14;;;;;;;17.00;5.40;;;;;;;;;;110642;1274;22153;-76
2023/06/13 12:00:50;;;;;;;16.20;5.50;;;;;;;;;;110651;1274;22404;-76
2023/06/13 12:03:21;;;;;;;15.40;6.00;;;;;;;;;;110833;1251;22307;-76
2023/06/13 12:05:48;;;;;;;14.20;5.20;;;;;;;;;;110670;1273;22534;-76
2023/06/13 12:08:15;;;;;;;12.10;5.20;;;;;;;;;;110504;1271;22332;-76
2023/06/13 12:10:48;;;;;;;13.50;4.80;;;;;;;;;;110518;1274;22388;-77
2023/06/13 12:13:16;;;;;;;9.30;3.80;;;;;;;;;;110597;1253;22130;-77
2023/06/13 12:15:44;;;;;;;11.90;5.10;;;;;;;;;;110696;1267;22131;-76
2023/06/13 12:18:12;;;;;;;12.60;5.90;;;;;;;;;;110593;1275;22338;-77
2023/06/13 12:20:49;;;;;;;43.50;21.30;;;;;;;;;;110455;1273;22357;-77
2023/06/13 12:23:17;;;;;;;14.90;6.80;;;;;;;;;;110607;1254;22880;-76
2023/06/13 12:25:45;;;;;;;13.60;5.60;;;;;;;;;;110495;1274;22137;-77
2023/06/13 12:28:15;;;;;;;11.30;4.00;;;;;;;;;;110483;1274;22117;-77
2023/06/13 12:30:43;;;;;;;14.10;7.50;;;;;;;;;;110562;1274;22011;-76
2023/06/13 12:33:13;;;;;;;12.70;4.90;;;;;;;;;;110593;1253;22347;-76
2023/06/13 12:35:51;;;;;;;8.80;4.20;;;;;;;;;;110563;1274;22303;-77
2023/06/13 12:38:26;;;;;;;10.40;3.80;;;;;;;;;;110617;1259;22722;-78
2023/06/13 12:40:53;;;;;;;15.60;7.20;;;;;;;;;;110608;1274;22118;-77
2023/06/13 12:43:24;;;;;;;11.50;4.50;;;;;;;;;;110850;1257;22192;-77
2023/06/13 12:45:51;;;;;;;10.40;4.20;;;;;;;;;;110483;1270;22097;-76
2023/06/13 12:48:18;;;;;;;9.40;3.40;;;;;;;;;;110457;1275;22816;-77
2023/06/13 12:50:48;;;;;;;10.60;3.60;;;;;;;;;;110537;1275;22115;-77
2023/06/13 12:53:19;;;;;;;6.90;2.70;;;;;;;;;;110700;1257;21987;-77
2023/06/13 12:55:50;;;;;;;7.50;3.60;;;;;;;;;;110609;1268;22140;-76
2023/06/13 12:58:26;;;;;;;8.10;3.40;;;;;;;;;;110487;1275;22100;-77
2023/06/13 13:00:54;;;;;;;9.90;3.50;;;;;;;;;;110608;1275;22122;-77
2023/06/13 13:03:21;;;;;;;9.20;3.20;;;;;;;;;;110546;1256;22173;-77
2023/06/13 13:05:52;;;;;;;10.20;3.60;;;;;;;;;;110536;1275;22131;-77
2023/06/13 13:08:22;;;;;;;8.80;3.20;;;;;;;;;;110566;1275;22061;-77
2023/06/13 13:10:49;;;;;;;9.70;3.40;;;;;;;;;;110598;1275;22074;-78
2023/06/13 13:13:17;;;;;;;37.30;12.10;;;;;;;;;;110643;1254;22188;-76
2023/06/13 13:15:45;;;;;;;75.70;24.60;;;;;;;;;;110467;1275;22039;-76
2023/06/13 13:18:12;;;;;;;89.90;37.40;;;;;;;;;;110611;1275;22748;-77
2023/06/13 13:20:39;;;;;;;29.00;11.40;;;;;;;;;;110618;1275;22136;-78
2023/06/13 13:23:11;;;;;;;28.70;13.30;;;;;;;;;;110481;1252;22757;-78
2023/06/13 13:25:38;;;;;;;42.10;21.00;;;;;;;;;;110580;1269;22784;-77
2023/06/13 13:28:05;;;;;;;14.20;5.10;;;;;;;;;;110540;1275;22103;-77
2023/06/13 13:30:32;;;;;;;18.90;8.80;;;;;;;;;;110587;1272;22328;-76
2023/06/13 13:32:59;;;;;;;22.20;13.30;;;;;;;;;;110602;1275;22127;-77
2023/06/13 13:35:26;;;;;;;48.20;32.50;;;;;;;;;;110974;1252;22792;-77
2023/06/13 13:37:53;;;;;;;16.80;9.30;;;;;;;;;;110469;1275;22130;-77
2023/06/13 13:40:20;;;;;;;7.90;3.50;;;;;;;;;;110609;1275;22123;-77
2023/06/13 13:42:50;;;;;;;16.40;8.80;;;;;;;;;;110456;1276;22015;-81
2023/06/13 13:45:17;;;;;;;15.70;6.80;;;;;;;;;;110776;1256;21998;-76
2023/06/13 13:47:43;;;;;;;7.20;2.40;;;;;;;;;;110611;1275;22136;-77
2023/06/13 13:50:10;;;;;;;6.10;2.00;;;;;;;;;;110596;1272;22147;-77
2023/06/13 13:52:40;;;;;;;6.70;2.30;;;;;;;;;;110481;1275;22119;-78
2023/06/13 13:55:08;;;;;;;4.70;1.90;;;;;;;;;;110708;1257;22595;-77
2023/06/13 13:57:35;;;;;;;11.50;2.30;;;;;;;;;;110602;1275;22116;-78
2023/06/13 14:00:06;;;;;;;8.40;2.80;;;;;;;;;;110584;1275;22483;-77
2023/06/13 14:02:33;;;;;;;7.40;2.70;;;;;;;;;;110472;1275;22109;-77
2023/06/13 14:05:00;;;;;;;5.50;2.40;;;;;;;;;;110624;1253;22121;-76
2023/06/13 14:07:30;;;;;;;7.40;2.50;;;;;;;;;;110583;1275;22080;-79
2023/06/13 14:09:56;;;;;;;7.10;2.40;;;;;;;;;;110498;1275;22310;-77
2023/06/13 14:12:23;;;;;;;6.50;2.00;;;;;;;;;;110609;1275;22132;-78
2023/06/13 14:14:53;;;;;;;6.20;2.30;;;;;;;;;;110663;1256;22158;-78
2023/06/13 14:17:19;;;;;;;6.70;2.30;;;;;;;;;;110517;1275;22147;-78
2023/06/13 14:19:47;;;;;;;6.80;1.90;;;;;;;;;;110582;1275;22176;-78
2023/06/13 14:22:14;;;;;;;8.20;2.10;;;;;;;;;;110497;1275;22139;-78
2023/06/13 14:24:41;;;;;;;6.50;2.10;;;;;;;;;;110632;1255;22500;-78
2023/06/13 14:27:09;;;;;;;6.60;2.00;;;;;;;;;;110266;1275;22888;-77
2023/06/13 14:29:36;;;;;;;6.00;2.20;;;;;;;;;;110550;1275;22450;-78
2023/06/13 14:32:04;;;;;;;6.70;2.10;;;;;;;;;;110459;1275;22106;-78
2023/06/13 14:34:31;;;;;;;7.20;2.50;;;;;;;;;;110490;1252;23193;-78
2023/06/13 14:36:58;;;;;;;8.00;2.60;;;;;;;;;;110267;1275;22219;-78
2023/06/13 14:39:25;;;;;;;6.80;2.70;;;;;;;;;;110612;1275;22221;-79
2023/06/13 14:41:55;;;;;;;5.60;2.30;;;;;;;;;;110590;1268;22135;-79
2023/06/13 14:44:25;;;;;;;6.20;2.40;;;;;;;;;;110588;1276;22126;-79
2023/06/13 14:46:54;;;;;;;6.50;2.40;;;;;;;;;;110804;1257;22120;-77
2023/06/13 14:49:21;;;;;;;10.30;2.70;;;;;;;;;;110548;1275;22106;-79
2023/06/13 14:51:49;;;;;;;10.80;3.00;;;;;;;;;;110468;1276;22157;-80
2023/06/13 14:54:16;;;;;;;10.60;3.10;;;;;;;;;;110494;1275;22117;-78